x

8419317 - Wells, Me (welm1) Weather Station

5:54 - Fri 25th Jul 2014 All times are EDT. -4 hours from GMT.

  • Wind
    6mph, 9mph gusts
  • Sea Temp 61°f
  • Ar Temp 58°f
  • Sea Pressure 1012.5mb
  • 8419317 - Wells, Me
  • 8419317 - Wells, Me

More Historic Weather Station data

Upgrade to MSW Pro to gain access to the past 30 days of data for over 8000 Wavebouys and Weather Stations around the globe.

Join Pro

Comparision Forecast

View Surf forecast
   
Sex 07/25 5:54 6 9 mph 1012.5mb 61f 58f
5:48 6 9 mph 1012.5mb 61f 58f
5:42 6 8 mph 1012.5mb 61f 58f
5:36 6 7 mph 1012.4mb 61f 57f
5:30 7 8 mph 1012.4mb 61f 57f
5:24 7 8 mph 1012.4mb 61f 57f
5:18 8 10 mph 1012.4mb 60f 57f
5:12 8 9 mph 1012.3mb 60f 57f
5:06 8 10 mph 1012.4mb 60f 58f
5:00 9 11 mph 1012.4mb 60f 58f
4:54 9 10 mph 1012.3mb 60f 58f
4:48 8 10 mph 1012.3mb 60f 57f
4:42 7 8 mph 1012.3mb 60f 57f
4:36 6 8 mph 1012.3mb 60f 57f
4:30 7 8 mph 1012.3mb 60f 58f
4:24 6 8 mph 1012.2mb 60f 58f
4:18 7 9 mph 1012.2mb 60f 58f
4:12 7 9 mph 1012.1mb 60f 58f
4:06 7 8 mph 1012.1mb 60f 58f
4:00 6 7 mph 1012.1mb 60f 58f
3:54 6 7 mph 1012.1mb 60f 58f
3:48 6
mph
1012mb 60f 59f
3:42 5 6 mph 1012mb 60f 59f
3:36 3 6 mph 1011.9mb 60f 59f
3:30 3 5 mph 1012.1mb 60f 59f
3:24 2 3 mph 1012.1mb 60f 59f
3:18 2 3 mph 1012mb 60f 59f
3:12 2 5 mph 1012mb 60f 59f
3:06 3 5 mph 1012mb 59f 59f
3:00 3 6 mph 1012mb 59f 59f
2:54 5 6 mph 1012mb 59f 59f
2:48 6 7 mph 1011.9mb 59f 59f
2:42 5 6 mph 1011.9mb 59f 60f
2:36 5 6 mph 1011.9mb 59f 60f
2:30 3 5 mph 1012mb 59f 60f
2:24 3 5 mph 1012mb 58f 60f
2:18 5 6 mph 1012mb 58f 60f
2:12 6
mph
1011.9mb 58f 60f
2:06 6 7 mph 1011.9mb 58f 61f
2:00 7 8 mph 1011.9mb 58f 61f
1:54 7 9 mph 1011.9mb 58f 61f
1:48 6 8 mph 1011.9mb 58f 61f
1:42 5 6 mph 1012mb 58f 61f
1:36 5 7 mph 1011.9mb 58f 61f
1:30 6 7 mph 1011.8mb 58f 62f
1:24 6 7 mph 1011.9mb 58f 61f
1:18 6 7 mph 1011.9mb 58f 61f
1:12 6 7 mph 1011.8mb 58f 61f
1:06 6
mph
1011.9mb 58f 61f
1:00 5 6 mph 1012mb 58f 61f
12:54 5 6 mph 1011.9mb 58f 61f
12:48 6
mph
1011.9mb 58f 61f
12:42 5
mph
1011.9mb 58f 61f
12:36 5
mph
1011.9mb 58f 61f
12:30 3 5 mph 1011.9mb 58f 61f
12:24 5
mph
1011.8mb 58f 61f
12:18 3 6 mph 1011.7mb 58f 61f
12:12 6
mph
1011.7mb 58f 61f
12:06 5 6 mph 1011.7mb 58f 61f
12:00 6
mph
1011.6mb 58f 61f
Qui 07/24 11:54 3
mph
1011.5mb 58f 61f
11:48 3 5 mph 1011.5mb 58f 61f
11:42 3
mph
1011.4mb 58f 61f
11:36 3
mph
1011.4mb 58f 61f
11:30 2 3 mph 1011.3mb 58f 62f
11:24 2
mph
1011.3mb 58f 62f
11:18 2 3 mph 1011.2mb 58f 62f
11:12 3 5 mph 1011.2mb 58f 62f
11:06 5
mph
1011.1mb 58f 62f
11:00 3 5 mph 1011.1mb 58f 62f
10:54 3 5 mph 1011.2mb 58f 62f
10:48 2 3 mph 1011.2mb 58f 63f
10:42 1 2 mph 1011.2mb 58f 63f
10:36  -  2 mph 1011.2mb 58f 63f
10:30  -  1 mph 1011.2mb 58f 63f
10:24  -  1 mph 1011.2mb 58f 63f
10:18  -  2 mph 1011.1mb 58f 63f
10:12  -  2 mph 1011mb 58f 64f
10:06 1 3 mph 1010.9mb 58f 64f
10:00 2 3 mph 1010.9mb 58f 64f
9:54 1 2 mph 1010.9mb 58f 64f
9:48 1 3 mph 1010.9mb 58f 64f
9:42 3 5 mph 1010.8mb 58f 64f
9:36 5 7 mph 1010.8mb 58f 64f
9:30 8 9 mph 1010.9mb 58f 64f
9:24 7 8 mph 1010.8mb 58f 64f
9:18 3 5 mph 1010.5mb 58f 64f
9:12 2 3 mph 1010.4mb 58f 65f
9:06 3 5 mph 1010.2mb 58f 67f
9:00 3 5 mph 1010.2mb 58f 66f
8:54 2 3 mph 1010.2mb 57f 66f
8:48 1
mph
1010.1mb 58f 66f
8:42  -  1 mph 1010.1mb 58f 66f
8:36 1 2 mph 1010mb 58f 67f
8:30 2 3 mph 1009.9mb 58f 67f
8:24 2 3 mph 1009.8mb 58f 67f
8:18  -  1 mph 1009.8mb 58f 66f
8:12  -  1 mph 1009.8mb 58f 66f
8:06  -  2 mph 1009.8mb 58f 67f
8:00  -  mph 1009.8mb 58f 67f
7:54  -  1 mph 1009.7mb 58f 67f
7:48  -  1 mph 1009.8mb 58f 67f
7:42  -  1 mph 1009.7mb 58f 66f
7:36 1 2 mph 1009.8mb 58f 66f
7:30 2 3 mph 1009.7mb 58f 67f
7:24 2 3 mph 1009.5mb 59f 67f
7:18 3 6 mph 1009.5mb 59f 67f
7:12 6
mph
1009.5mb 60f 67f
7:06 6 7 mph 1009.5mb 60f 67f
7:00 6 8 mph 1009.5mb 62f 68f
6:54 7 9 mph 1009.6mb 62f 67f
6:48 9 11 mph 1009.7mb 63f 67f
6:42 9 10 mph 1009.8mb 64f 67f
6:36 9 10 mph 1009.8mb 64f 67f
6:30 8 9 mph 1009.6mb 64f 67f
6:24 7 9 mph 1009.6mb 65f 67f
6:18 7 10 mph 1009.7mb 65f 68f
6:12 7 9 mph 1009.6mb 65f 67f
6:06 7 11 mph 1009.7mb 65f 67f
6:00 9 10 mph 1009.6mb 65f 67f
5:54 9 10 mph 1009.6mb 65f 67f
5:48 7 10 mph 1009.6mb 65f 68f
5:42 9 10 mph 1009.6mb 64f 67f
5:36 9 10 mph 1009.6mb 64f 67f
5:30 9 10 mph 1009.6mb 64f 67f
5:24 8 10 mph 1009.5mb 64f 67f
5:18 7 8 mph 1009.5mb 63f 67f
5:12 6 8 mph 1009.4mb 63f 67f
5:06 8 10 mph 1009.4mb 63f 67f
5:00 7 8 mph 1009.3mb 63f 67f
4:54 7 8 mph 1009.4mb 63f 67f
4:48 6 8 mph 1009.4mb 63f 67f
4:42 6 8 mph 1009.4mb 63f 67f
4:36 7 8 mph 1009.3mb 63f 67f
4:30 7 9 mph 1009.4mb 63f 67f
4:24 8 10 mph 1009.4mb 62f 67f
4:18 7 8 mph 1009.5mb 62f 68f
4:12 8 9 mph 1009.5mb 62f 68f
4:06 6 8 mph 1009.5mb 62f 68f
4:00 6 8 mph 1009.5mb 62f 68f
3:54 7 10 mph 1009.5mb 62f 68f
3:48 8 10 mph 1009.3mb 62f 68f
3:42 7 9 mph 1009.4mb 62f 68f
3:36 6 8 mph 1009.4mb 62f 69f
3:30 6 8 mph 1009.4mb 62f 69f
3:24 6 9 mph 1009.4mb 62f 69f
3:18 5 7 mph 1009.2mb 62f 69f
3:12 6 7 mph 1009.4mb 62f 69f
3:06 6 8 mph 1009.3mb 62f 70f
3:00 7 8 mph 1009.3mb 62f 69f
2:54 6 8 mph 1009.4mb 61f 69f
2:48 5 9 mph 1009.4mb 61f 69f
2:42 7 9 mph 1009.5mb 61f 68f
2:36 6 9 mph 1009.4mb 61f 69f
2:30 7 9 mph 1009.4mb 61f 68f
2:24 7 9 mph 1009.3mb 61f 68f
2:18 5 7 mph 1009.5mb 60f 67f
2:12 6 9 mph 1009.4mb 60f 68f
2:06 5 7 mph 1009.5mb 60f 68f
2:00 5 8 mph 1009.6mb 60f 68f
1:54 6 9 mph 1009.6mb 59f 67f
1:48 3 8 mph 1009.6mb 59f 68f
1:42 5 9 mph 1009.6mb 59f 68f
1:36 9 11 mph 1009.6mb 58f 67f
1:30 8 13 mph 1009.6mb 58f 67f
1:24 9 13 mph 1009.5mb 58f 66f
1:18 9 13 mph 1009.5mb 57f 66f
1:12 8 11 mph 1009.6mb 57f 65f
1:06 10 13 mph 1009.6mb 57f 65f
1:00 10 15 mph 1009.6mb 57f 66f
12:54 11 16 mph 1009.6mb 57f 66f
12:48 10 14 mph 1009.5mb - 67f
12:42 10 14 mph 1009.6mb - 67f
12:36 9 14 mph 1009.5mb - 66f
12:30 10 13 mph 1009.5mb 56f 66f
12:24 9 13 mph 1009.5mb 56f 66f
12:18 8 11 mph 1009.5mb 56f 66f
12:12 8 11 mph 1009.5mb 56f 66f
12:06 9 10 mph 1009.5mb 56f 66f
12:00 8 11 mph 1009.6mb 56f 68f
11:54 11 14 mph 1009.4mb 55f 72f
11:48 8 15 mph 1009.5mb 55f 72f
11:42 13 15 mph 1009.3mb 55f 72f
11:36 11 15 mph 1009.3mb 55f 72f
11:30 11 16 mph 1009.3mb 55f 71f
11:24 11 16 mph 1009.3mb 55f 71f
11:18 13 15 mph 1009.2mb 55f 71f
11:12 9 14 mph 1009.4mb 55f 71f
11:06 8 14 mph 1009.4mb 55f 71f
11:00 9 14 mph 1009.5mb 54f 70f
10:54 9 15 mph 1009.4mb 54f 70f
10:48 10 15 mph 1009.5mb 55f 70f
10:42 11 15 mph 1009.4mb 55f 69f
10:36 13 15 mph 1009.3mb 55f 69f
10:30 13 18 mph 1009.3mb 55f 69f
10:24 13 17 mph 1009.2mb 55f 69f
10:18 15 17 mph 1009.3mb 55f 69f
10:12 9 20 mph 1009.3mb 55f 69f
10:06 11 14 mph 1009.2mb 55f 69f
10:00 10 16 mph 1009.2mb 55f 68f
9:54 10 14 mph 1009.1mb 55f 68f
9:48 10 14 mph 1009mb 55f 68f
9:42 8 11 mph 1008.9mb 55f 68f
9:36 8 10 mph 1008.9mb 55f 67f
9:30 9 13 mph 1008.9mb 55f 67f
9:24 8 10 mph 1009mb 55f 67f
9:18 7 10 mph 1008.9mb 55f 67f
9:12 8 13 mph 1008.8mb 55f 67f
9:06 8 10 mph 1008.8mb 55f 66f
9:00 8 10 mph 1008.9mb 55f 66f
8:54 8 13 mph 1008.9mb 55f 66f
8:48 10 13 mph 1008.7mb 55f 66f
8:42 9 14 mph 1008.7mb 55f 66f
8:36 10 13 mph 1008.7mb 55f 66f
8:30 9 11 mph 1008.7mb 55f 66f
8:24 9 13 mph 1008.7mb 55f 66f
8:18 9 14 mph 1008.8mb 55f 66f
8:12 9 14 mph 1008.7mb 56f 66f
8:06 9 14 mph 1008.7mb 56f 66f
8:00 14 16 mph 1008.6mb 56f 66f
7:54 11 15 mph 1008.6mb 56f 67f
7:48 10 14 mph 1008.7mb 57f 67f
7:42 10 16 mph 1008.5mb 57f 67f
7:36 11 17 mph 1008.4mb 58f 67f
7:30 13 16 mph 1008.5mb 58f 67f
7:24 13 17 mph 1008.2mb 59f 67f
7:18 11 15 mph 1008mb 59f 67f
7:12 9 11 mph 1008.1mb 59f 67f
7:06 7 11 mph 1008.2mb 60f 67f
7:00 9 16 mph 1008.2mb 60f 67f
6:54 11 16 mph 1008.2mb 61f 67f
6:48 15 17 mph 1007.9mb 61f 68f
6:42 15 20 mph 1007.7mb 62f 68f
6:36 14 20 mph 1007.6mb 63f 68f
6:30 17 21 mph 1007.5mb 63f 69f
6:24 11 14 mph 1007.6mb 64f 69f
6:18 8 10 mph 1007.5mb 64f 69f
6:12 7 8 mph 1007.6mb 63f 69f
6:06 8 9 mph 1007.5mb 63f 69f
6:00 7 13 mph 1007.4mb 63f 69f
5:54 10 14 mph 1007.3mb 63f 69f
5:48 10 14 mph 1007.2mb 63f 69f
5:42 8 13 mph 1007.2mb 62f 70f
5:36 10 11 mph 1007.2mb 62f 70f
5:30 11 13 mph 1007.3mb 62f 70f
5:24 8 13 mph 1007.2mb 62f 70f
5:18 8 10 mph 1007mb 62f 70f
5:12 7 9 mph 1006.9mb 62f 70f
5:06 7 8 mph 1006.8mb 62f 70f
5:00 3 6 mph 1006.9mb 62f 70f
4:54 3
mph
1006.8mb 62f 70f
4:48 2
mph
1006.7mb 62f 69f
4:42 1 2 mph 1006.7mb 62f 69f
4:36 1 2 mph 1006.6mb 61f 70f
4:30 2 3 mph 1006.6mb 61f 70f
4:24 2 3 mph 1006.6mb 61f 70f
4:18 2 3 mph 1006.7mb 61f 69f
4:12 2
mph
1006.6mb 61f 70f
4:06 2
mph
1006.6mb 61f 70f
4:00 2
mph
1006.5mb 61f 69f
3:54  -  1 mph 1006.4mb 61f 70f
3:48  -  3 mph 1006.4mb 61f 70f
3:42 2 5 mph 1006.5mb 61f 70f
3:36 2 5 mph 1006.4mb 61f 70f
3:30 2 3 mph 1006.5mb 61f 70f
3:24 1 2 mph 1006.5mb 61f 69f
3:18 1 2 mph 1006.4mb 61f 69f
3:12 2 3 mph 1006.4mb 61f 69f
3:06 1 2 mph 1006.4mb 60f 69f
3:00  -  1 mph 1006.4mb 60f 68f
2:54  -  1 mph 1006.4mb 60f 68f
2:48  -  mph 1006.5mb 60f 68f
2:42  -  1 mph 1006.4mb 60f 68f
2:36 1
mph
1006.4mb 60f 68f
2:30  -  3 mph 1006.3mb 60f 68f
2:24 3 5 mph 1006.5mb 60f 68f
2:18 2 5 mph 1006.5mb 60f 67f
2:12 5 6 mph 1006.4mb 60f 67f
2:06 3 5 mph 1006.4mb 60f 67f
2:00 5 6 mph 1006.4mb 60f 66f
1:54 2 3 mph 1006.3mb 59f 67f
1:48 1 2 mph 1006.3mb 59f 67f
1:42 2 3 mph 1006.3mb 59f 68f
1:36 3
mph
1006.3mb 59f 67f
1:30 2 3 mph 1006.4mb 59f 66f
1:24 2 3 mph 1006.4mb 59f 67f
1:18 5
mph
1006.3mb 58f 66f
1:12 2 3 mph 1006.3mb 58f 67f
1:06 2 3 mph 1006.3mb 58f 67f
1:00 1 2 mph 1006.4mb 58f 68f
12:54 2 3 mph 1006.5mb 58f 69f
12:48 3 5 mph 1006.5mb 57f 69f
12:42 1 3 mph 1006.7mb 57f 69f
12:36 3
mph
1006.9mb 57f 69f
12:30 2
mph
1007mb 57f 70f
12:24 2 3 mph 1007.2mb 57f 70f
12:18 1 3 mph 1007.3mb 56f -
12:12 2 5 mph 1007.7mb 56f -
12:06 3 6 mph 1007.8mb 56f -
12:00 3 5 mph 1007.8mb 56f 70f
Qua 07/23 11:54 3 8 mph 1007.9mb 56f 69f
11:48 7 9 mph 1007.8mb 56f 69f
11:42 1 6 mph 1007.5mb 56f 66f
11:36 6 11 mph 1007.5mb 56f 65f
11:30 9 10 mph 1007.7mb 56f 66f
11:24 7 8 mph 1007.4mb 56f 66f
11:18 7 10 mph 1007.4mb 56f 66f
11:12 8 10 mph 1007.3mb 56f 67f
11:06 3 5 mph 1007.3mb 55f 68f
11:00 2 6 mph 1007.5mb 55f 69f
10:54 6
mph
1007.8mb 55f 69f
10:48 2 3 mph 1007.6mb 55f 69f
10:42  -  1 mph 1007.5mb 55f 70f
10:36 2 3 mph 1007.4mb 55f 70f
10:30 3 6 mph 1007.3mb 55f 70f
10:24 7 9 mph 1007.3mb 55f 69f
10:18 2 5 mph 1007.5mb 55f 71f
10:12 3 6 mph 1007.6mb 55f 71f
10:06 3 7 mph 1008mb 55f 72f
10:00 6 10 mph 1008.3mb 55f 72f
9:54 7 11 mph 1008.5mb 55f 73f
9:48 7 9 mph 1008.6mb 55f 73f
9:42 5 8 mph 1008.4mb 55f 73f
9:36 5 7 mph 1008.2mb 55f 73f
9:30 5 7 mph 1008.1mb 55f 73f
9:24 6 9 mph 1008.1mb 55f 74f
9:18 6 10 mph 1007.9mb 55f 74f
9:12 7 10 mph 1007.8mb 55f 74f
9:06 5 7 mph 1007.7mb 55f 74f
9:00 3 10 mph 1007.4mb 55f 74f
8:54 6 11 mph 1007.3mb 56f 74f
8:48 9 14 mph 1007.2mb 56f 76f
8:42 11 20 mph 1007.1mb 56f 76f
8:36 10 17 mph 1007.3mb 56f 77f
8:30 11 15 mph 1007.1mb 56f 78f
8:24 13 21 mph 1007mb 56f 78f
8:18 15 20 mph 1006.9mb 56f 78f
8:12 16 20 mph 1006.7mb 56f 77f
8:06 14 16 mph 1006.6mb 56f 76f
8:00 6 9 mph 1006.5mb 56f 71f
7:54 2
mph
1006mb 56f 70f
7:48 2
mph
1005.8mb 56f 70f
7:42  -  mph 1005.8mb 56f 71f
7:36  -  1 mph 1005.6mb 56f 71f
7:30  -  3 mph 1005.6mb 56f 71f
7:24 3 6 mph 1005.6mb 57f 70f
7:18 6 8 mph 1005.4mb 57f 69f
7:12 8 9 mph 1005.3mb 57f 70f
7:06 7 8 mph 1005.2mb 57f 70f
7:00 2 6 mph 1005.2mb 57f 71f
6:54 7 9 mph 1005.2mb 57f 71f
6:48 3 5 mph 1005.3mb 58f 72f
6:42 3 8 mph 1005.3mb 58f 72f
6:36 7 10 mph 1005.3mb 58f 71f
6:30 10 13 mph 1005.2mb 59f 71f
6:24 10 13 mph 1005.2mb 59f 71f
6:18 10 13 mph 1005.1mb 59f 71f
6:12 10 11 mph 1005mb 60f 71f
6:06 8 13 mph 1005.1mb 61f 72f
6:00 11 15 mph 1005.1mb 61f 71f
5:54 13 15 mph 1005.1mb 62f 71f
5:48 14 16 mph 1005.1mb 63f 71f
5:42 14 18 mph 1005.1mb 64f 71f
5:36 14 17 mph 1005.2mb 66f 70f
5:30 14 17 mph 1005.2mb 67f 71f
5:24 14 18 mph 1005.2mb 67f 71f
5:18 15 18 mph 1005.3mb 67f 70f
5:12 16 22 mph 1005.4mb 67f 70f
5:06 18 22 mph 1005.5mb 66f 71f
5:00 18 22 mph 1005.5mb 65f 71f
4:54 18 22 mph 1005.6mb 64f 72f
4:48 20 22 mph 1005.6mb 64f 72f
4:42 17 21 mph 1005.6mb 64f 72f
4:36 16 18 mph 1005.7mb 65f 72f
4:30 17 20 mph 1005.8mb 65f 73f
4:24 17 20 mph 1005.8mb 65f 75f
4:18 14 17 mph 1005.9mb 65f 75f
4:12 16 22 mph 1005.8mb 65f 73f
4:06 18 23 mph 1005.9mb 65f 73f
4:00 18 23 mph 1006mb 65f 73f
3:54 21 25 mph 1006mb 65f 75f
3:48 21 25 mph 1006.1mb 65f 76f
3:42 22 25 mph 1006mb 65f 76f
3:36 22 24 mph 1006.1mb 65f 76f
3:30 21 26 mph 1006mb 65f 76f
3:24 21 25 mph 1006.1mb 65f 76f
3:18 20 23 mph 1006.3mb 64f 75f
3:12 21 24 mph 1006.3mb 64f 76f
3:06 22 25 mph 1006.4mb 64f 76f
3:00 22 25 mph 1006.6mb 64f 75f
2:54 21 25 mph 1006.7mb 64f 75f
2:48 21 24 mph 1006.7mb 64f 76f
2:42 21 23 mph 1006.8mb 64f 75f
2:36 18 22 mph 1006.9mb 64f 75f
2:30 18 22 mph 1007mb 64f 75f
2:24 20 24 mph 1007mb 64f 75f
2:18 18 22 mph 1007mb 64f 74f
2:12 18 24 mph 1007mb 64f 74f
2:06 20 23 mph 1007.1mb 63f 75f
2:00 18 24 mph 1007.2mb 63f 72f
1:54 20 25 mph 1007.3mb 63f 72f
1:48 22 25 mph 1007.4mb 62f 71f
1:42 20 24 mph 1007.6mb 62f 71f
1:36 17 22 mph 1007.6mb 62f 71f
1:30 18 23 mph 1007.7mb 62f 71f
1:24 20 23 mph 1007.7mb 61f 73f
1:18 18 23 mph 1007.7mb 61f 72f
1:12 20 23 mph 1007.8mb 61f 73f
1:06 18 23 mph 1007.8mb 61f 73f
1:00 20 22 mph 1007.8mb 60f 72f
12:54 16 20 mph 1008.1mb 60f 73f
12:48 14 17 mph 1008.2mb 60f 72f
12:42 16 20 mph 1008.3mb 59f 71f
12:36 16 18 mph 1008.4mb 59f 71f
12:30 15 20 mph 1008.4mb 59f 71f
12:24 15 18 mph 1008.4mb 58f 72f
12:18 16 20 mph 1008.4mb 58f 72f
12:12 16 20 mph 1008.4mb 58f 72f
12:06 17 20 mph 1008.6mb 58f 72f
12:00 15 17 mph 1008.6mb 58f 72f
11:54 16 18 mph 1008.7mb 58f 72f
11:48 14 16 mph 1008.8mb 58f 72f
11:42 10 15 mph 1008.9mb 58f 72f
11:36 13 15 mph 1009mb 57f 72f
11:30 11 15 mph 1009mb 57f 73f
11:24 11 16 mph 1009.1mb 57f 73f
11:18 14 16 mph 1009.2mb 57f 74f
11:12 9 14 mph 1009.2mb 57f 74f
11:06 9 11 mph 1009.3mb 57f 74f
11:00 8 13 mph 1009.4mb 57f 77f
10:54 8 11 mph 1009.4mb 57f 75f
10:48 6 10 mph 1009.5mb 57f 75f
10:42 6 10 mph 1009.5mb 57f 74f
10:36 9 11 mph 1009.6mb 57f 75f
10:30 6 9 mph 1009.6mb 57f 79f
10:24 7 10 mph 1009.7mb 57f 80f
10:18 6 11 mph 1009.8mb 57f 81f
10:12 8 11 mph 1009.7mb 57f 81f
10:06 8 11 mph 1009.8mb 57f 81f
10:00 6 11 mph 1009.9mb 57f 81f
9:54 7 14 mph 1010.1mb 56f 81f
9:48 7 11 mph 1010.1mb 56f 81f
9:42 5 9 mph 1010.1mb 57f 81f
9:36 7 13 mph 1010.1mb 57f 80f
9:30 3 9 mph 1010.2mb 57f 80f
9:24 9 14 mph 1010.3mb 56f 80f
9:18 7 13 mph 1010.4mb 56f 80f
9:12 7 13 mph 1010.4mb 56f 79f
9:06 3 11 mph 1010.5mb 56f 79f
9:00 3 10 mph 1010.6mb 56f 79f
8:54 6 10 mph 1010.7mb 56f 79f
8:48 5 7 mph 1010.7mb 56f 78f
8:42 6 9 mph 1010.8mb 56f 78f
8:36 7 11 mph 1010.8mb 56f 77f
8:30 7 10 mph 1010.8mb 56f 77f
8:24 5 7 mph 1010.8mb 56f 78f
8:18 3 10 mph 1010.8mb 56f 77f
8:12 3 10 mph 1010.8mb 56f 77f
8:06 6 11 mph 1010.8mb 56f 77f
8:00 5 9 mph 1010.9mb 56f 76f
7:54 6 9 mph 1010.8mb 56f 76f
7:48 6 10 mph 1010.7mb 56f 76f
7:42 6 10 mph 1010.8mb 56f 76f
7:36 6 11 mph 1010.9mb 56f 76f
7:30 6 14 mph 1010.8mb 56f 75f
7:24 7 10 mph 1010.8mb 56f 75f
7:18 5 14 mph 1010.8mb 56f 75f
7:12 7 11 mph 1010.9mb 56f 74f
7:06 7 13 mph 1010.9mb 56f 74f
7:00 7 14 mph 1011mb 56f 74f
6:54 8 11 mph 1011mb 56f 74f
6:48 8 11 mph 1011mb 56f 73f
6:42 7 11 mph 1011.1mb 56f 73f
6:36 5 11 mph 1011.1mb 57f 73f
6:30 7 11 mph 1011.2mb 57f 73f
6:24 5 9 mph 1011.3mb 57f 73f
6:18 6 13 mph 1011.2mb 57f 73f
6:12 6 9 mph 1011.2mb 58f 72f
6:06 6 9 mph 1011.1mb 58f 72f
6:00 6 10 mph 1011.2mb 59f 72f
5:54 8 13 mph 1011.1mb 60f 72f
5:48 7 16 mph 1011.2mb 60f 72f
5:42 9 13 mph 1011.3mb 61f 72f
5:36 8 11 mph 1011.1mb 64f 72f
5:30 7 13 mph 1011mb 64f 72f
5:24 8 11 mph 1011.1mb 65f 72f
5:18 7 10 mph 1011mb 64f 72f
5:12 7 11 mph 1011.2mb 64f 72f
5:06 8 13 mph 1011.2mb 64f 72f
5:00 7 10 mph 1011.3mb 64f 72f
4:54 7 11 mph 1011.2mb 64f 72f
4:48 6 11 mph 1011.3mb 64f 72f
4:42 8 14 mph 1011.4mb 64f 73f
4:36 10 14 mph 1011.5mb 64f 73f
4:30 10 14 mph 1011.4mb 64f 73f
4:24 9 14 mph 1011.4mb 64f 73f
4:18 8 15 mph 1011.4mb 64f 73f
4:12 9 15 mph 1011.4mb 64f 73f
4:06 7 14 mph 1011.5mb 64f 73f
4:00 8 11 mph 1011.5mb 64f 73f
3:54 9 14 mph 1011.4mb 63f 73f
3:48 7 11 mph 1011.5mb 63f 73f
3:42 8 15 mph 1011.5mb 63f 74f
3:36 6 11 mph 1011.7mb 63f 74f
3:30 9 14 mph 1011.8mb 63f 74f
3:24 8 11 mph 1011.7mb 63f 74f
3:18 8 11 mph 1011.8mb 63f 74f
3:12 9 14 mph 1011.9mb 63f 74f
3:06 9 14 mph 1011.8mb 63f 74f
3:00 7 14 mph 1011.9mb 63f 74f
2:54 8 11 mph 1012mb 63f 74f
2:48 7 11 mph 1012mb 63f 74f
2:42 8 13 mph 1012mb 63f 75f
2:36 8 14 mph 1012mb 63f 75f
2:30 8 13 mph 1012mb 63f 75f
2:24 9 15 mph 1012.1mb 63f 75f
2:18 7 14 mph 1012.1mb 63f 75f
2:12 8 14 mph 1012.1mb 63f 76f
2:06 9 15 mph 1012.2mb 63f 76f
2:00 8 15 mph 1012.2mb 63f 76f
1:54 8 13 mph 1012.3mb 62f 76f
1:48 10 15 mph 1012.5mb 62f 76f
1:42 8 15 mph 1012.6mb 62f 76f
1:36 8 14 mph 1012.5mb 62f 76f
1:30 8 13 mph 1012.6mb 63f 76f
1:24 9 14 mph 1012.5mb 62f 76f
1:18 9 14 mph 1012.6mb 62f 76f
1:12 8 13 mph 1012.7mb 62f 76f
1:06 8 11 mph 1012.8mb 62f 76f
1:00 7 13 mph 1012.9mb 62f 76f
12:54 8 13 mph 1012.8mb 62f 76f
12:48 8 11 mph 1012.7mb 62f 76f
12:42 7 13 mph 1012.8mb 62f 76f
12:36 7 11 mph 1012.9mb 62f 76f
12:30 7 11 mph 1012.8mb 62f 76f
12:24 7 10 mph 1012.9mb 62f 76f
12:18 6 8 mph 1012.9mb 61f 73f
12:12 2 5 mph 1013mb 61f 67f
12:06  -  2 mph 1013mb 61f 65f
12:00  -  2 mph 1013.1mb 61f 66f
Ter 07/22 11:54  -  1 mph 1013.2mb 60f 66f
11:48 1 2 mph 1013.3mb 60f 66f
11:42 2
mph
1013.3mb 60f 66f
11:36 1 2 mph 1013.2mb 60f 66f
11:30 2 3 mph 1013.4mb 60f 66f
11:24 2 3 mph 1013.4mb 60f 66f
11:18 2 3 mph 1013.5mb 60f 66f
11:12 2
mph
1013.5mb 60f 66f
11:06 2
mph
1013.6mb 60f 66f
11:00 2 3 mph 1013.7mb 60f 65f
10:54 3
mph
1013.8mb 59f 66f
10:48 1 2 mph 1013.8mb 59f 66f
10:42  -  1 mph 1013.8mb 59f 66f
10:36 1 2 mph 1013.8mb 59f 66f
10:30 2
mph
1013.9mb 59f 66f
10:24 1 2 mph 1014mb 59f 67f
10:18 2
mph
1014mb 59f 67f
10:12 2
mph
1014mb 59f 67f
10:06 2
mph
1014.2mb 59f 66f
10:00 2
mph
1014.2mb 59f 67f
9:54 2
mph
1014.2mb 59f 67f
9:48 2 3 mph 1014.2mb 59f 67f
9:42 3
mph
1014.3mb 59f 67f
9:36 3
mph
1014.5mb 58f 67f
9:30 1 2 mph 1014.4mb 58f 67f
9:24 1
mph
1014.4mb 59f 67f
9:18 1 2 mph 1014.3mb 59f 67f
9:12 2
mph
1014.2mb 59f 67f
9:06  -  1 mph 1014.2mb 59f 68f
9:00 1 2 mph 1014.2mb 59f 68f
8:54 1 3 mph 1014.3mb 59f 68f
8:48 3 6 mph 1014.3mb 59f 67f
8:42 5 6 mph 1014.2mb 59f 68f
8:36 3 5 mph 1014.2mb 59f 68f
8:30 7 8 mph 1014.3mb 59f 68f
8:24 6 10 mph 1014.2mb 59f 67f
8:18 8 10 mph 1014.2mb 59f 68f
8:12 8 10 mph 1014.1mb 59f 68f
8:06 9 13 mph 1014.2mb 59f 68f
8:00 10 14 mph 1014.3mb 59f 68f
7:54 9 13 mph 1014.4mb 59f 68f
7:48 11 14 mph 1014.4mb 59f 69f
7:42 10 11 mph 1014.5mb 59f 69f
7:36 10 13 mph 1014.5mb 59f 69f
7:30 9 10 mph 1014.5mb 59f 71f
7:24 10 11 mph 1014.5mb 59f 70f
7:18 10 13 mph 1014.5mb 60f 69f
7:12 10 11 mph 1014.6mb 60f 70f
7:06 9 11 mph 1014.6mb 60f 71f
7:00 10 11 mph 1014.7mb 60f 71f
6:54 10 13 mph 1014.6mb 60f 72f
6:48 9 11 mph 1014.6mb 60f 73f
6:42 10 11 mph 1014.6mb 60f 72f
6:36 9 14 mph 1014.7mb 60f 72f
6:30 14 15 mph 1014.7mb 60f 71f
6:24 13 16 mph 1014.7mb 61f 71f
6:18 14 17 mph 1014.8mb 61f 71f
6:12 16 18 mph 1014.9mb 61f 72f
6:06 16 18 mph 1015mb 62f 72f
6:00 15 18 mph 1015mb 62f 73f
5:54 16 18 mph 1015mb 62f 73f
5:48 16 18 mph 1015.1mb 63f 73f
5:42 17 20 mph 1015.2mb 63f 73f
5:36 16 18 mph 1015.3mb 63f 73f
5:30 16 20 mph 1015.4mb 64f 71f
5:24 16 18 mph 1015.4mb 64f 72f
5:18 16 20 mph 1015.4mb 65f 71f
5:12 16 20 mph 1015.4mb 65f 71f
5:06 15 20 mph 1015.5mb 66f 71f
5:00 17 20 mph 1015.7mb 66f 71f
4:54 16 18 mph 1015.9mb 66f 72f
4:48 17 21 mph 1015.9mb 67f 72f
4:42 18 21 mph 1016.1mb 67f 71f
4:36 20 23 mph 1016.1mb 67f 71f
4:30 20 22 mph 1016.2mb 67f 71f
4:24 21 24 mph 1016.2mb 67f 71f
4:18 18 22 mph 1016.2mb 67f 71f
4:12 17 22 mph 1016.3mb 67f 71f
4:06 17 22 mph 1016.4mb 66f 70f
4:00 18 22 mph 1016.4mb 66f 70f
3:54 17 21 mph 1016.4mb 66f 71f
3:48 18 21 mph 1016.5mb 66f 70f
3:42 17 22 mph 1016.5mb 65f 71f
3:36 18 22 mph 1016.5mb 65f 71f
3:30 20 24 mph 1016.5mb 65f 71f
3:24 20 22 mph 1016.6mb 65f 71f
3:18 20 24 mph 1016.7mb 65f 71f
3:12 21 23 mph 1016.8mb 65f 71f
3:06 20 24 mph 1016.7mb 65f 71f
3:00 21 23 mph 1016.9mb 65f 71f
2:54 20 24 mph 1016.9mb 65f 71f
2:48 22 24 mph 1016.9mb 65f 71f
2:42 22 25 mph 1017mb 65f 71f
2:36 20 24 mph 1016.9mb 65f 69f
2:30 18 24 mph 1016.9mb 65f 68f
2:24 20 23 mph 1016.9mb 65f 69f
2:18 18 22 mph 1017mb 65f 68f
2:12 15 18 mph 1016.9mb 65f 68f
2:06 17 21 mph 1016.9mb 64f 68f
2:00 15 21 mph 1016.9mb 64f 68f
1:54 17 21 mph 1017mb 64f 68f
1:48 18 22 mph 1017.1mb 64f 67f
1:42 18 22 mph 1017.1mb 64f 68f
1:36 17 21 mph 1017.1mb 64f 68f
1:30 16 20 mph 1017.1mb 64f 68f
1:24 17 21 mph 1017.3mb 64f 68f
1:18 16 20 mph 1017.4mb 64f 69f
1:12 18 20 mph 1017.6mb 64f 69f
1:06 15 18 mph 1017.6mb 64f 69f
1:00 15 17 mph 1017.8mb 64f 70f
12:54 14 17 mph 1017.8mb 64f 69f
12:48 13 16 mph 1018.1mb 63f 68f
12:42 13 16 mph 1018.1mb 63f 68f
12:36 11 13 mph 1018.1mb 63f 68f
12:30 10 14 mph 1018.2mb 63f 68f
12:24 11 14 mph 1018.1mb 63f 68f
12:18 10 13 mph 1018.3mb 62f 67f
12:12 9 11 mph 1018.3mb 62f 67f
12:06 11 13 mph 1018.5mb 62f 67f
12:00 9 11 mph 1018.5mb 62f 67f
11:54 9 11 mph 1018.5mb 62f 67f
11:48 10 13 mph 1018.6mb 62f 67f
11:42 8 10 mph 1018.6mb 62f 68f
11:36 9 10 mph 1018.7mb 62f 68f
11:30 6 7 mph 1019mb 61f 69f
11:24 6 8 mph 1019mb 61f 68f
11:18 7 8 mph 1019mb 61f 68f
11:12 6 7 mph 1019mb 61f 68f
11:06 6
mph
1019.1mb 61f 69f
11:00 5 6 mph 1019.2mb 61f 69f
10:54 5 6 mph 1019.2mb 61f 69f
10:48 5 6 mph 1019mb 60f 69f
10:42 6
mph
1019mb 60f 69f
10:36 5 6 mph 1019mb 60f 70f
10:30 5
mph
1019mb 60f 70f
10:24 5
mph
1019mb 60f 69f
10:18 5 6 mph 1018.8mb 60f 68f
10:12 6 8 mph 1018.6mb 60f 67f
10:06 7 8 mph 1018.6mb 60f 67f
10:00 7 8 mph 1018.8mb 60f 67f
9:54 6 7 mph 1018.9mb 60f 67f
9:48 5 6 mph 1018.9mb 60f 68f
9:42 5 6 mph 1018.9mb 59f 67f
9:36 5 7 mph 1018.8mb 59f 67f
9:30 7 8 mph 1018.7mb 59f 67f
9:24 6 7 mph 1018.8mb 59f 67f
9:18 6
mph
1018.8mb 59f 67f
9:12 6 7 mph 1018.8mb 59f 67f
9:06 6 7 mph 1018.9mb 59f 67f
9:00 6 7 mph 1019mb 59f 67f
8:54 6
mph
1019mb 59f 67f
8:48 6
mph
1019.1mb 59f 68f
8:42 5 6 mph 1019.1mb 59f 69f
8:36 6
mph
1019.3mb 59f 69f
8:30 5 6 mph 1019.4mb 59f 69f
8:24 3 5 mph 1019.3mb 59f 69f
8:18 3
mph
1019.3mb 59f 69f
8:12 3
mph
1019.4mb 59f 68f
8:06 3 5 mph 1019.4mb 59f 67f
8:00 3 6 mph 1019.5mb 59f 66f
7:54 5 6 mph 1019.5mb 59f 66f
7:48 5 6 mph 1019.5mb 59f 65f
7:42 5 6 mph 1019.5mb 59f 65f
7:36 3 5 mph 1019.5mb 60f 65f
7:30 2 3 mph 1019.4mb 60f 66f
7:24 1
mph
1019.4mb 60f 67f
7:18  -  1 mph 1019.5mb 60f 66f
7:12  -  1 mph 1019.4mb 60f 65f
7:06 1 2 mph 1019.4mb 60f 64f
7:00 2 3 mph 1019.4mb 60f 63f
6:54 2 3 mph 1019.5mb 60f 62f
6:48 2
mph
1019.5mb 60f 63f
6:42  -  2 mph 1019.5mb 60f 62f
6:36 1 3 mph 1019.5mb 60f 61f
6:30 2 3 mph 1019.5mb 60f 61f
6:24 1 2 mph 1019.5mb 60f 60f
6:18  -  1 mph 1019.5mb 60f 59f
6:12 1
mph
1019.6mb 60f 58f
6:06  -  2 mph 1019.6mb 60f 58f
6:00 2
mph
1019.5mb 60f 58f
5:54 1 2 mph 1019.5mb 60f 58f
5:48 1
mph
1019.5mb 60f 58f
5:42  -  1 mph 1019.5mb 60f 58f
5:36  -  1 mph 1019.5mb 60f 58f
5:30 1
mph
1019.5mb 60f 58f
5:24  -  1 mph 1019.5mb 61f 58f
5:18  -  2 mph 1019.5mb 61f 58f
5:12 1 2 mph 1019.6mb 61f 58f
5:06  -  1 mph 1019.5mb 62f 58f
5:00  -  1 mph 1019.5mb 62f 58f
4:54  -  mph 1019.4mb 63f 58f
4:48  -  1 mph 1019.5mb 64f 58f
4:42  -  1 mph 1019.4mb 64f 59f
4:36  -  1 mph 1019.4mb 64f 59f
4:30 1
mph
1019.4mb 64f 59f
4:24  -  1 mph 1019.4mb 64f 59f
4:18  -  1 mph 1019.4mb 64f 59f
4:12  -  1 mph 1019.4mb 64f 59f
4:06 1 2 mph 1019.4mb 64f 59f
4:00 2 3 mph 1019.4mb 64f 59f
3:54 1 2 mph 1019.3mb 64f 58f
3:48 2
mph
1019.3mb 64f 57f
3:42 2
mph
1019.3mb 64f 58f
3:36 2
mph
1019.2mb 63f 58f
3:30 1
mph
1019.2mb 63f 58f
3:24 1 2 mph 1019.3mb 63f 58f
3:18 2
mph
1019.3mb 63f 57f
3:12 2
mph
1019.3mb 63f 58f
3:06 1
mph
1019.3mb 63f 58f
3:00 1 2 mph 1019.3mb 63f 58f
2:54  -  mph 1019.4mb 63f 58f
2:48  -  1 mph 1019.5mb 63f 58f
2:42  -  1 mph 1019.5mb 63f 58f
2:36  -  2 mph 1019.5mb 63f 58f
2:30 1 2 mph 1019.6mb 63f 58f
2:24 2
mph
1019.6mb 63f 58f
2:18 2
mph
1019.7mb 63f 58f
2:12  -  2 mph 1019.9mb 63f 59f
2:06 1 2 mph 1019.9mb 63f 59f
2:00  -  1 mph 1019.9mb 63f 59f
1:54  -  1 mph 1019.8mb 63f 59f
1:48  -  1 mph 1019.9mb 63f 59f
1:42 1 2 mph 1019.9mb 63f 59f
1:36 1
mph
1019.9mb 63f 59f
1:30  -  1 mph 1019.9mb 63f 59f
1:24  -  1 mph 1019.9mb 63f 59f
1:18 1
mph
1020mb 63f 59f
1:12  -  2 mph 1020mb 63f 60f
1:06 2 3 mph 1020.1mb 63f 60f
1:00 2 3 mph 1020.1mb 63f 60f
12:54 1 2 mph 1020.2mb 63f 60f
12:48 1 2 mph 1020.3mb 63f 60f
12:42  -  2 mph 1020.2mb 63f 59f
12:36 2
mph
1020.2mb 63f 59f
12:30 1 2 mph 1020.2mb 63f 59f
12:24 1
mph
1020.1mb 63f 60f
12:18 1
mph
1020.2mb 63f 60f
12:12  -  1 mph 1020.3mb 63f 60f
12:06  -  1 mph 1020.3mb 62f 60f
12:00  -  1 mph 1020.3mb 62f 60f
Seg 07/21 11:54 1 2 mph 1020.4mb 62f 61f
11:48  -  1 mph 1020.5mb 62f 61f
11:42  -  1 mph 1020.5mb 62f 60f
11:36  -  1 mph 1020.5mb 62f 60f
11:30  -  1 mph 1020.6mb 62f 60f
11:24 1
mph
1020.6mb 62f 60f
11:18 1
mph
1020.6mb 62f 60f
11:12  -  1 mph 1020.7mb 62f 60f
11:06 1
mph
1020.6mb 62f 60f
11:00  -  2 mph 1020.7mb 62f 61f
10:54 1 2 mph 1020.7mb 62f 61f
10:48 1
mph
1020.6mb 62f 61f
10:42 1
mph
1020.6mb 62f 61f
10:36 1 2 mph 1020.7mb 62f 61f
10:30 2
mph
1020.6mb 62f 61f
10:24 1 2 mph 1020.5mb 62f 61f
10:18 2
mph
1020.6mb 62f 61f
10:12 1 2 mph 1020.6mb 62f 61f
10:06  -  1 mph 1020.7mb 62f 61f
10:00  -  1 mph 1020.8mb 62f 61f
9:54  -  1 mph 1020.8mb 62f 61f
9:48  -  2 mph 1020.9mb 61f 62f
9:42 2 3 mph 1020.9mb 61f 62f
9:36 2 3 mph 1020.9mb 61f 62f
9:30 2 3 mph 1020.9mb 61f 61f
9:24 2
mph
1020.9mb 61f 62f
9:18 2
mph
1020.8mb 61f 62f
9:12 1 2 mph 1020.8mb 61f 62f
9:06  -  1 mph 1020.7mb 61f 62f
9:00  -  1 mph 1020.7mb 61f 62f
8:54  -  1 mph 1020.6mb 61f 62f
8:48  -  1 mph 1020.6mb 62f 62f
8:42 1
mph
1020.6mb 62f 62f
8:36  -  1 mph 1020.5mb 62f 62f
8:30 1 2 mph 1020.5mb 62f 62f
8:24 1 2 mph 1020.4mb 62f 62f
8:18 2 3 mph 1020.4mb 61f 62f
8:12 2 3 mph 1020.4mb 61f 62f
8:06 2 5 mph 1020.4mb 62f 62f
8:00 3 6 mph 1020.5mb 62f 62f
7:54 5 6 mph 1020.4mb 61f 62f
7:48 6 7 mph 1020.4mb 61f 61f
7:42 5 6 mph 1020.4mb 61f 62f
7:36 6 7 mph 1020.5mb 61f 62f
7:30 6 7 mph 1020.4mb 61f 62f
7:24 6 7 mph 1020.4mb 61f 62f
7:18 5 6 mph 1020.4mb 61f 62f
7:12 3 6 mph 1020.4mb 61f 62f
7:06 6
mph
1020.4mb 61f 62f
7:00 5 6 mph 1020.5mb 61f 62f
6:54 5 6 mph 1020.5mb 61f 62f
6:48 5 7 mph 1020.5mb 61f 62f
6:42 6
mph
1020.4mb 61f 62f
6:36 6 8 mph 1020.4mb 61f 62f
6:30 5 7 mph 1020.4mb 62f 62f
6:24 5 7 mph 1020.5mb 62f 62f
6:18 6 8 mph 1020.5mb 62f 62f
6:12 6 8 mph 1020.5mb 62f 62f
6:06 6 8 mph 1020.5mb 62f 62f
6:00 6 8 mph 1020.5mb 62f 63f
5:54 7 8 mph 1020.5mb 62f 63f
5:48 6 9 mph 1020.6mb 62f 62f
5:42 6 9 mph 1020.6mb 62f 62f
5:36 7 9 mph 1020.6mb 62f 62f
5:30 7 9 mph 1020.6mb 62f 63f
5:24 8 9 mph 1020.7mb 62f 62f
5:18 8 9 mph 1020.7mb 62f 63f
5:12 6 10 mph 1020.7mb 62f 63f
5:06 7 9 mph 1020.7mb 62f 63f
5:00 8 10 mph 1020.7mb 62f 63f
4:54 7 9 mph 1020.7mb 62f 63f
4:48 7 9 mph 1020.8mb 62f 63f
4:42 8 10 mph 1020.8mb 62f 63f
4:36 8 10 mph 1020.8mb 62f 63f
4:30 9 10 mph 1020.8mb 62f 63f
4:18 8 9 mph 1020.9mb 63f 64f
4:12 9 11 mph 1020.9mb 64f 64f
4:06 10 11 mph 1021mb 64f 64f
4:00 9 11 mph 1021mb 64f 64f
3:54 9 11 mph 1021mb 64f 65f
3:48 8 11 mph 1021mb 64f 67f
3:42 8 9 mph 1021.1mb 63f 67f
3:36 9 11 mph 1021.1mb 63f 67f
3:30 8 10 mph 1021.1mb 63f 67f
3:24 8 9 mph 1021.1mb 63f 67f
3:18 8 10 mph 1021.1mb 63f 67f
3:12 7 9 mph 1021.2mb 63f 67f
3:06 7 8 mph 1021.1mb 63f 67f
3:00 6 9 mph 1021.1mb 62f 67f
2:54 7 8 mph 1021.2mb 62f 67f
2:48 7 8 mph 1021.3mb 62f 67f
2:42 7 8 mph 1021.3mb 62f 67f
2:36 7 8 mph 1021.3mb 62f 67f
2:30 6 8 mph 1021.4mb 62f 67f
2:24 7 9 mph 1021.4mb 62f 67f
2:18 7 8 mph 1021.5mb 62f 67f
2:12 7 9 mph 1021.6mb 62f 67f
2:06 7 8 mph 1021.6mb 62f 67f
2:00 7 8 mph 1021.5mb 62f 67f
1:54 6 8 mph 1021.5mb 62f 67f
1:48 7 9 mph 1021.6mb 62f 67f
1:42 7 8 mph 1021.6mb 62f 67f
1:36 6 8 mph 1021.6mb 62f 67f
1:30 6 8 mph 1021.6mb 62f 68f
1:24 6 7 mph 1021.6mb 62f 68f
1:18 5 6 mph 1021.7mb 62f 67f
1:12 5 6 mph 1021.7mb 62f 67f
1:06 6 8 mph 1021.7mb 62f 67f
1:00 6 7 mph 1021.7mb 62f 67f
12:54 6 7 mph 1021.7mb 62f 67f
12:48 7 9 mph 1021.8mb 62f 67f
12:42 6 8 mph 1021.8mb 61f 67f
12:36 6 7 mph 1021.9mb 61f 67f
12:30 6 7 mph 1021.9mb 61f 66f
12:24 6 7 mph 1022mb 61f 66f
12:18 7 8 mph 1022mb 61f 65f
12:12 7 8 mph 1022.1mb 61f 66f
12:06 6 8 mph 1022.1mb 61f 65f
12:00 6 8 mph 1022.3mb 61f 66f
11:54 6 7 mph 1022.3mb 61f 66f
11:48 5 8 mph 1022.3mb 61f 66f
11:42 6 7 mph 1022.3mb 61f 66f
11:36 6 7 mph 1022.3mb 61f 66f
11:30 5 7 mph 1022.4mb 61f 66f
11:24 5 6 mph 1022.5mb 60f 66f
11:18 6 7 mph 1022.6mb 60f 66f
11:12 6 7 mph 1022.6mb 60f 66f
11:06 5 6 mph 1022.6mb 60f 67f
11:00 6 7 mph 1022.6mb 60f 66f
10:54 5 7 mph 1022.7mb 60f 66f
10:48 3 8 mph 1022.6mb 60f 65f